Time;durP1;ratioP1;P1;durP2;ratioP2;P2;SDS_P1;SDS_P2;PMS_P1;PMS_P2;Temp;Humidity;BMP_temperature;BMP_pressure;BME280_temperature;BME280_humidity;BME280_pressure;Samples;Min_cycle;Max_cycle;Signal;HPM_P1;HPM_P2
2023/06/14 00:00:22;;;;;;;7.07;2.70;;;;;;;;;;5007799;28;20227;-67
2023/06/14 00:02:49;;;;;;;6.77;3.30;;;;;;;;;;4990621;28;20705;-67
2023/06/14 00:05:16;;;;;;;13.63;3.83;;;;;;;;;;5008328;28;20221;-67
2023/06/14 00:07:42;;;;;;;21.07;3.87;;;;;;;;;;5007231;28;20275;-67
2023/06/14 00:10:30;;;;;;;53.20;6.57;;;;;;;;;;4999221;28;20191;-67
2023/06/14 00:12:59;;;;;;;29.63;5.33;;;;;;;;;;5001382;28;20302;-67
2023/06/14 00:15:26;;;;;;;13.27;3.50;;;;;;;;;;5008562;28;20235;-67
2023/06/14 00:17:54;;;;;;;12.03;3.20;;;;;;;;;;5007637;28;20254;-67
2023/06/14 00:20:21;;;;;;;11.67;3.53;;;;;;;;;;5007023;28;20258;-67
2023/06/14 00:22:48;;;;;;;7.83;3.10;;;;;;;;;;4989182;28;20616;-67
2023/06/14 00:25:14;;;;;;;8.43;3.10;;;;;;;;;;4988779;28;20615;-66
2023/06/14 00:27:55;;;;;;;5.90;2.53;;;;;;;;;;5001561;28;20190;-67
2023/06/14 00:30:21;;;;;;;10.70;3.03;;;;;;;;;;4989841;28;20227;-67
2023/06/14 00:32:48;;;;;;;5.07;3.00;;;;;;;;;;5008536;28;20314;-67
2023/06/14 00:35:16;;;;;;;5.63;2.73;;;;;;;;;;4993286;28;20195;-67
2023/06/14 00:37:43;;;;;;;9.20;3.07;;;;;;;;;;5010752;28;20204;-67
2023/06/14 00:40:10;;;;;;;10.53;3.10;;;;;;;;;;4994811;28;20200;-67
2023/06/14 00:42:37;;;;;;;3.70;2.40;;;;;;;;;;5010473;28;20204;-66
2023/06/14 00:45:04;;;;;;;7.83;2.87;;;;;;;;;;4993886;28;20214;-67
2023/06/14 00:47:30;;;;;;;5.80;2.83;;;;;;;;;;5011550;28;20220;-67
2023/06/14 00:49:57;;;;;;;6.57;3.20;;;;;;;;;;4994735;28;20563;-67
2023/06/14 00:52:41;;;;;;;8.87;3.40;;;;;;;;;;4995696;28;20237;-67
2023/06/14 00:55:08;;;;;;;7.07;3.20;;;;;;;;;;5012054;28;20192;-67
2023/06/14 00:57:37;;;;;;;5.40;2.83;;;;;;;;;;5009463;28;20200;-67
2023/06/14 01:00:08;;;;;;;4.83;2.87;;;;;;;;;;5009643;28;20572;-67
2023/06/14 01:02:37;;;;;;;5.40;2.77;;;;;;;;;;5011087;28;20191;-67
2023/06/14 01:05:07;;;;;;;4.70;3.13;;;;;;;;;;4993990;28;20188;-67
2023/06/14 01:07:36;;;;;;;6.33;2.53;;;;;;;;;;4993259;28;20254;-67
2023/06/14 01:10:22;;;;;;;4.67;2.70;;;;;;;;;;4978179;28;20200;-67
2023/06/14 01:12:57;;;;;;;5.53;2.77;;;;;;;;;;5010853;28;20212;-67
2023/06/14 01:15:24;;;;;;;7.90;3.40;;;;;;;;;;5011048;28;20546;-67
2023/06/14 01:17:57;;;;;;;6.70;2.70;;;;;;;;;;5010133;28;20362;-67
2023/06/14 01:20:28;;;;;;;5.30;2.90;;;;;;;;;;5011691;28;20266;-67
2023/06/14 01:22:54;;;;;;;6.17;3.50;;;;;;;;;;4993195;28;20603;-67
2023/06/14 01:25:22;;;;;;;6.20;2.97;;;;;;;;;;5011934;28;20267;-67
2023/06/14 01:27:49;;;;;;;6.00;2.93;;;;;;;;;;5012327;28;20199;-67
2023/06/14 01:30:17;;;;;;;4.50;2.70;;;;;;;;;;4995555;28;20888;-67
2023/06/14 01:32:45;;;;;;;6.87;3.43;;;;;;;;;;4973432;28;20629;-67
2023/06/14 01:35:12;;;;;;;7.37;3.53;;;;;;;;;;4989006;28;20192;-67
2023/06/14 01:37:39;;;;;;;8.17;3.30;;;;;;;;;;4992388;28;20215;-67
2023/06/14 01:40:06;;;;;;;6.27;3.53;;;;;;;;;;5010466;28;20220;-67
2023/06/14 02:15:33;;;;;;;9.43;3.20;;;;;;;;;;4995493;28;20187;-68
2023/06/14 02:18:02;;;;;;;6.73;3.27;;;;;;;;;;4998852;28;20223;-68
2023/06/14 02:20:29;;;;;;;9.93;3.77;;;;;;;;;;4992860;28;20199;-68
2023/06/14 02:22:57;;;;;;;10.17;4.00;;;;;;;;;;5009399;28;20184;-68
2023/06/14 02:25:24;;;;;;;9.17;3.87;;;;;;;;;;4988871;28;20197;-68
2023/06/14 02:27:50;;;;;;;6.20;3.67;;;;;;;;;;5001405;28;20204;-68
2023/06/14 02:30:17;;;;;;;6.47;3.27;;;;;;;;;;5000414;28;20279;-68
2023/06/14 02:32:44;;;;;;;8.77;3.50;;;;;;;;;;5009746;28;20192;-67
2023/06/14 02:35:13;;;;;;;6.00;3.33;;;;;;;;;;5011054;28;20195;-68
2023/06/14 02:37:40;;;;;;;11.67;3.53;;;;;;;;;;4992058;28;20202;-68
2023/06/14 02:40:08;;;;;;;10.93;3.53;;;;;;;;;;5009294;28;20195;-68
2023/06/14 02:42:35;;;;;;;6.23;3.57;;;;;;;;;;5002395;28;20181;-68
2023/06/14 02:45:04;;;;;;;8.73;3.23;;;;;;;;;;4991924;28;20197;-68
2023/06/14 02:47:48;;;;;;;10.60;3.40;;;;;;;;;;5009530;28;20273;-68
2023/06/14 02:50:15;;;;;;;6.67;3.33;;;;;;;;;;5010595;28;20191;-68
2023/06/14 02:52:59;;;;;;;7.43;3.23;;;;;;;;;;5008432;28;20199;-68
2023/06/14 02:55:26;;;;;;;8.07;3.33;;;;;;;;;;4990702;28;20188;-68
2023/06/14 02:57:53;;;;;;;8.73;3.67;;;;;;;;;;4997988;28;20250;-68
2023/06/14 03:00:20;;;;;;;7.10;3.40;;;;;;;;;;4993050;28;20227;-68
2023/06/14 03:02:47;;;;;;;7.90;3.50;;;;;;;;;;4991752;28;20211;-67
2023/06/14 03:05:14;;;;;;;12.50;3.90;;;;;;;;;;5008769;28;20231;-67
2023/06/14 03:07:44;;;;;;;7.53;3.50;;;;;;;;;;5007045;28;20302;-67
2023/06/14 03:10:12;;;;;;;11.20;3.33;;;;;;;;;;4994032;28;20292;-67
2023/06/14 03:12:42;;;;;;;5.67;3.40;;;;;;;;;;5010395;28;20207;-67
2023/06/14 03:15:12;;;;;;;5.93;3.30;;;;;;;;;;4984000;28;20200;-67
2023/06/14 03:17:45;;;;;;;5.97;3.43;;;;;;;;;;4987752;28;20230;-67
2023/06/14 03:20:15;;;;;;;4.87;3.00;;;;;;;;;;5002884;28;20290;-67
2023/06/14 03:22:45;;;;;;;6.23;3.07;;;;;;;;;;4989304;28;20192;-67
2023/06/14 03:25:13;;;;;;;6.20;3.00;;;;;;;;;;4994497;28;20196;-66
2023/06/14 03:27:41;;;;;;;4.80;2.97;;;;;;;;;;4989893;28;20203;-67
2023/06/14 03:30:08;;;;;;;7.03;3.20;;;;;;;;;;4990519;28;20207;-65
2023/06/14 03:32:35;;;;;;;7.77;3.03;;;;;;;;;;4992343;28;20192;-66
2023/06/14 03:35:03;;;;;;;7.40;2.87;;;;;;;;;;4991852;28;20246;-66
2023/06/14 03:37:30;;;;;;;14.03;3.73;;;;;;;;;;5007462;28;20745;-66
2023/06/14 03:39:57;;;;;;;6.13;3.07;;;;;;;;;;4988944;28;20204;-66
2023/06/14 03:42:25;;;;;;;6.57;3.07;;;;;;;;;;4989349;28;20652;-69
2023/06/14 03:44:53;;;;;;;11.43;3.43;;;;;;;;;;4988547;28;20192;-66
2023/06/14 03:47:21;;;;;;;12.07;3.33;;;;;;;;;;4989537;28;20983;-67
2023/06/14 03:49:48;;;;;;;6.33;2.83;;;;;;;;;;5000117;28;20205;-66
2023/06/14 03:52:16;;;;;;;5.83;3.07;;;;;;;;;;5002036;28;20195;-68
2023/06/14 03:54:46;;;;;;;6.80;2.77;;;;;;;;;;4994180;28;20230;-67
2023/06/14 03:57:17;;;;;;;4.77;2.80;;;;;;;;;;5005766;28;20200;-68
2023/06/14 03:59:44;;;;;;;5.17;2.97;;;;;;;;;;5005029;28;20282;-67
2023/06/14 04:02:11;;;;;;;7.50;3.07;;;;;;;;;;5000944;28;20223;-67
2023/06/14 04:04:38;;;;;;;5.37;2.93;;;;;;;;;;5007219;28;20667;-67
2023/06/14 04:07:05;;;;;;;9.60;3.10;;;;;;;;;;4988649;28;20224;-68
2023/06/14 04:09:32;;;;;;;5.53;2.90;;;;;;;;;;4990353;28;20188;-67
2023/06/14 04:11:59;;;;;;;6.03;3.13;;;;;;;;;;4989482;28;20196;-67
2023/06/14 04:14:25;;;;;;;6.23;3.37;;;;;;;;;;5006667;28;20261;-60
2023/06/14 04:16:52;;;;;;;8.40;3.63;;;;;;;;;;5007065;28;20270;-60
2023/06/14 04:19:21;;;;;;;14.07;4.10;;;;;;;;;;4995820;28;20323;-74
2023/06/14 04:21:49;;;;;;;12.07;3.80;;;;;;;;;;4990524;28;20626;-66
2023/06/14 04:24:17;;;;;;;6.90;3.50;;;;;;;;;;5001506;28;20290;-66
2023/06/14 04:26:49;;;;;;;9.37;3.33;;;;;;;;;;4992309;28;20704;-66
2023/06/14 04:29:34;;;;;;;21.63;5.07;;;;;;;;;;5000930;28;20198;-65
2023/06/14 04:32:09;;;;;;;20.03;4.43;;;;;;;;;;5005060;28;20290;-66
2023/06/14 04:34:39;;;;;;;12.80;3.83;;;;;;;;;;4987791;28;20255;-66
2023/06/14 04:37:07;;;;;;;11.90;3.70;;;;;;;;;;5006401;28;20215;-66
2023/06/14 04:39:37;;;;;;;9.57;3.83;;;;;;;;;;4995526;28;20230;-66
2023/06/14 04:42:04;;;;;;;12.33;3.57;;;;;;;;;;4990687;28;20199;-66
2023/06/14 04:44:32;;;;;;;8.40;3.43;;;;;;;;;;5007610;28;20647;-66
2023/06/14 04:47:02;;;;;;;8.13;3.60;;;;;;;;;;4993686;28;20204;-66
2023/06/14 04:49:32;;;;;;;10.67;3.63;;;;;;;;;;5006622;28;20200;-67
2023/06/14 04:52:01;;;;;;;7.27;3.20;;;;;;;;;;4985501;28;20289;-65
2023/06/14 04:54:38;;;;;;;6.77;3.17;;;;;;;;;;4990574;28;20226;-66
2023/06/14 04:57:25;;;;;;;10.20;3.70;;;;;;;;;;5002747;28;20173;-66
2023/06/14 04:59:55;;;;;;;6.83;3.33;;;;;;;;;;5004119;28;20207;-66
2023/06/14 05:02:24;;;;;;;7.33;3.57;;;;;;;;;;4989551;28;20236;-66
2023/06/14 05:04:52;;;;;;;7.00;3.23;;;;;;;;;;4980616;23;20600;-66
2023/06/14 05:07:20;;;;;;;9.63;3.50;;;;;;;;;;4963104;28;20289;-66
2023/06/14 05:09:48;;;;;;;8.00;3.63;;;;;;;;;;4937747;28;20250;-66
2023/06/14 05:12:18;;;;;;;10.90;3.40;;;;;;;;;;4979957;28;20269;-63
2023/06/14 05:14:45;;;;;;;12.77;4.10;;;;;;;;;;4965839;28;20681;-66
2023/06/14 05:17:16;;;;;;;9.80;4.40;;;;;;;;;;4940737;29;20190;-67
2023/06/14 05:19:44;;;;;;;10.47;3.93;;;;;;;;;;4939403;28;20247;-66
2023/06/14 05:22:11;;;;;;;8.93;4.10;;;;;;;;;;4970559;28;20659;-66
2023/06/14 05:24:38;;;;;;;10.83;4.30;;;;;;;;;;4970644;28;20205;-64
2023/06/14 05:27:08;;;;;;;9.17;4.30;;;;;;;;;;4970412;28;20260;-66
2023/06/14 05:29:36;;;;;;;14.23;5.30;;;;;;;;;;4970203;28;20201;-66
2023/06/14 05:32:03;;;;;;;8.17;4.90;;;;;;;;;;4968581;28;20189;-66
2023/06/14 05:34:30;;;;;;;12.53;4.97;;;;;;;;;;4938321;28;20226;-66
2023/06/14 05:36:57;;;;;;;11.63;4.80;;;;;;;;;;4966173;28;20491;-67
2023/06/14 05:39:24;;;;;;;11.90;5.07;;;;;;;;;;4959587;28;20198;-67
2023/06/14 05:41:51;;;;;;;8.90;5.10;;;;;;;;;;4967653;28;20200;-67
2023/06/14 05:44:21;;;;;;;8.93;5.03;;;;;;;;;;4961623;28;20189;-66
2023/06/14 05:46:48;;;;;;;8.20;5.20;;;;;;;;;;4963184;28;20199;-65
2023/06/14 05:49:15;;;;;;;14.10;5.53;;;;;;;;;;4968016;28;20255;-65
2023/06/14 05:51:42;;;;;;;11.27;5.60;;;;;;;;;;4970258;28;20561;-65
2023/06/14 05:54:09;;;;;;;12.47;5.60;;;;;;;;;;4970004;28;20707;-65
2023/06/14 05:56:36;;;;;;;13.50;5.70;;;;;;;;;;4970744;28;20660;-65
2023/06/14 05:59:03;;;;;;;9.87;5.37;;;;;;;;;;4970462;28;20213;-64
2023/06/14 06:01:30;;;;;;;11.37;5.37;;;;;;;;;;4967625;28;20271;-65
2023/06/14 06:03:57;;;;;;;11.47;5.57;;;;;;;;;;4958999;28;20290;-65
2023/06/14 06:06:25;;;;;;;12.30;5.70;;;;;;;;;;4977087;28;20560;-65
2023/06/14 06:08:51;;;;;;;13.97;5.33;;;;;;;;;;4990294;28;20255;-65
2023/06/14 06:11:18;;;;;;;8.77;4.73;;;;;;;;;;4990123;28;20193;-65
2023/06/14 06:13:45;;;;;;;10.60;5.33;;;;;;;;;;4990151;28;20732;-65
2023/06/14 06:16:29;;;;;;;14.63;5.43;;;;;;;;;;4991237;28;20173;-65
2023/06/14 06:18:56;;;;;;;14.30;5.20;;;;;;;;;;4991287;28;20196;-65
2023/06/14 06:21:40;;;;;;;16.90;5.10;;;;;;;;;;4990754;28;20255;-65
2023/06/14 06:24:07;;;;;;;10.80;5.37;;;;;;;;;;4991205;28;20188;-65
2023/06/14 06:26:51;;;;;;;13.70;5.00;;;;;;;;;;4990933;28;20169;-65
2023/06/14 06:29:18;;;;;;;10.47;4.77;;;;;;;;;;4991604;28;20324;-65
2023/06/14 06:31:45;;;;;;;10.30;4.50;;;;;;;;;;4990818;28;20205;-66
2023/06/14 06:34:12;;;;;;;9.23;4.30;;;;;;;;;;4991116;28;20211;-65
2023/06/14 06:36:39;;;;;;;10.10;4.63;;;;;;;;;;4990927;28;20201;-65
2023/06/14 06:39:09;;;;;;;11.23;5.30;;;;;;;;;;4990789;28;20283;-66
2023/06/14 06:41:40;;;;;;;7.90;5.50;;;;;;;;;;4986270;28;20193;-67
2023/06/14 06:44:08;;;;;;;10.87;4.80;;;;;;;;;;4981272;28;20233;-65
2023/06/14 06:46:35;;;;;;;13.60;5.03;;;;;;;;;;4973966;28;20204;-67
2023/06/14 06:49:02;;;;;;;11.53;5.23;;;;;;;;;;4982194;28;20231;-69
2023/06/14 06:51:28;;;;;;;8.13;4.43;;;;;;;;;;4989783;28;20189;-67
2023/06/14 06:53:55;;;;;;;8.50;4.57;;;;;;;;;;4988877;28;20204;-67
2023/06/14 06:56:24;;;;;;;11.40;4.90;;;;;;;;;;4990252;28;20623;-66
2023/06/14 06:58:52;;;;;;;10.47;4.50;;;;;;;;;;4980404;28;20201;-68
2023/06/14 07:01:19;;;;;;;11.17;5.03;;;;;;;;;;4986085;28;21018;-68
2023/06/14 07:03:46;;;;;;;9.57;4.90;;;;;;;;;;4976618;28;20935;-68
2023/06/14 07:06:14;;;;;;;8.53;4.63;;;;;;;;;;4988769;28;20209;-67
2023/06/14 07:08:41;;;;;;;9.03;4.40;;;;;;;;;;4989384;28;20201;-69
2023/06/14 07:11:07;;;;;;;8.70;4.40;;;;;;;;;;4972628;28;20196;-68
2023/06/14 07:13:35;;;;;;;8.90;4.40;;;;;;;;;;4986590;28;20189;-66
2023/06/14 07:16:04;;;;;;;7.87;4.33;;;;;;;;;;4979259;28;20217;-64
2023/06/14 07:18:31;;;;;;;9.83;4.63;;;;;;;;;;4973706;28;20193;-64
2023/06/14 07:21:15;;;;;;;7.77;4.23;;;;;;;;;;4990837;28;20264;-63
2023/06/14 07:23:42;;;;;;;10.87;4.90;;;;;;;;;;4990956;28;20189;-63
2023/06/14 07:26:08;;;;;;;9.47;4.87;;;;;;;;;;4987873;28;20208;-65
2023/06/14 07:28:35;;;;;;;9.33;4.73;;;;;;;;;;4980778;28;20189;-65
2023/06/14 07:31:05;;;;;;;9.07;4.50;;;;;;;;;;4991347;28;20193;-65
2023/06/14 07:33:49;;;;;;;9.53;4.40;;;;;;;;;;4991014;28;20173;-65
2023/06/14 07:36:17;;;;;;;11.23;4.80;;;;;;;;;;4990725;28;20189;-65
2023/06/14 07:38:44;;;;;;;6.63;3.53;;;;;;;;;;4991236;28;20205;-65
2023/06/14 07:41:11;;;;;;;11.43;3.83;;;;;;;;;;4990560;28;20201;-65
2023/06/14 07:43:38;;;;;;;11.77;4.13;;;;;;;;;;4991038;28;20224;-65
2023/06/14 07:46:06;;;;;;;6.70;4.00;;;;;;;;;;4991168;28;20196;-65
2023/06/14 07:48:34;;;;;;;8.60;3.83;;;;;;;;;;4990541;28;20188;-65
2023/06/14 07:51:01;;;;;;;7.90;3.87;;;;;;;;;;4990210;28;20185;-65
2023/06/14 07:53:46;;;;;;;10.23;4.17;;;;;;;;;;4988544;28;20176;-67
2023/06/14 07:56:13;;;;;;;9.03;3.27;;;;;;;;;;4961990;28;20218;-65
2023/06/14 07:58:39;;;;;;;5.37;3.30;;;;;;;;;;4971214;28;20273;-65
2023/06/14 08:01:07;;;;;;;7.63;3.63;;;;;;;;;;4972917;28;20689;-64
2023/06/14 08:03:34;;;;;;;6.13;3.50;;;;;;;;;;4972493;28;20288;-65
2023/06/14 08:06:18;;;;;;;8.00;3.90;;;;;;;;;;4988419;28;20328;-64
2023/06/14 08:08:45;;;;;;;6.77;3.83;;;;;;;;;;4961447;28;20212;-65
2023/06/14 08:11:29;;;;;;;7.67;3.73;;;;;;;;;;4984748;28;20220;-65
2023/06/14 08:13:56;;;;;;;8.50;3.83;;;;;;;;;;4990129;28;20192;-66
2023/06/14 08:16:40;;;;;;;6.30;4.47;;;;;;;;;;4987455;28;20197;-65
2023/06/14 08:19:07;;;;;;;6.10;4.00;;;;;;;;;;4988405;28;20192;-64
2023/06/14 08:21:54;;;;;;;7.40;4.10;;;;;;;;;;4975609;28;20526;-67
2023/06/14 08:24:24;;;;;;;7.60;4.63;;;;;;;;;;4969181;28;20194;-67
2023/06/14 08:26:51;;;;;;;10.50;5.17;;;;;;;;;;4971268;28;20195;-67
2023/06/14 08:29:18;;;;;;;15.20;5.50;;;;;;;;;;4988602;28;20196;-67
2023/06/14 08:31:46;;;;;;;9.67;5.00;;;;;;;;;;4986531;28;20282;-65
2023/06/14 08:34:13;;;;;;;10.03;4.67;;;;;;;;;;4988818;28;20189;-66
2023/06/14 08:36:45;;;;;;;12.00;5.20;;;;;;;;;;4972198;28;20222;-67
2023/06/14 08:39:13;;;;;;;9.53;4.97;;;;;;;;;;4988822;28;20192;-66
2023/06/14 08:41:40;;;;;;;8.13;4.03;;;;;;;;;;4987775;28;20251;-65
2023/06/14 08:44:07;;;;;;;9.03;4.00;;;;;;;;;;4988738;28;20203;-60
2023/06/14 08:46:34;;;;;;;10.73;4.67;;;;;;;;;;4987787;28;20199;-67
2023/06/14 08:49:01;;;;;;;6.80;4.60;;;;;;;;;;4971283;28;20200;-67
2023/06/14 08:51:33;;;;;;;6.73;4.20;;;;;;;;;;4970329;28;20660;-67
2023/06/14 08:54:01;;;;;;;10.60;4.50;;;;;;;;;;4956764;28;20201;-67
2023/06/14 08:56:48;;;;;;;9.50;4.10;;;;;;;;;;4993238;28;20316;-67
2023/06/14 08:59:15;;;;;;;9.10;4.10;;;;;;;;;;4990447;28;20288;-67
2023/06/14 09:01:42;;;;;;;8.63;4.57;;;;;;;;;;4993576;28;20824;-66
2023/06/14 09:04:29;;;;;;;8.90;4.97;;;;;;;;;;4982897;28;20236;-65
2023/06/14 09:06:56;;;;;;;10.03;4.37;;;;;;;;;;4967290;28;20253;-65
2023/06/14 09:09:22;;;;;;;12.07;5.17;;;;;;;;;;4968236;28;20256;-64
2023/06/14 09:11:49;;;;;;;11.43;5.73;;;;;;;;;;4985126;28;20256;-67
2023/06/14 09:14:38;;;;;;;11.63;5.60;;;;;;;;;;4979282;28;20724;-67
2023/06/14 09:17:05;;;;;;;12.33;7.00;;;;;;;;;;4973171;28;20217;-65
2023/06/14 09:19:32;;;;;;;16.53;7.40;;;;;;;;;;4972723;28;20193;-69
2023/06/14 09:21:59;;;;;;;17.10;7.07;;;;;;;;;;4974765;28;20193;-67
2023/06/14 09:24:26;;;;;;;14.93;7.37;;;;;;;;;;4959006;28;20193;-66
2023/06/14 09:26:53;;;;;;;15.03;6.83;;;;;;;;;;4973115;28;20193;-66
2023/06/14 09:29:20;;;;;;;18.57;8.40;;;;;;;;;;4971435;28;20712;-67
2023/06/14 09:31:47;;;;;;;19.27;8.63;;;;;;;;;;4971633;28;20189;-67
2023/06/14 09:34:16;;;;;;;10.40;6.20;;;;;;;;;;4939440;28;20767;-67
2023/06/14 09:36:43;;;;;;;15.60;5.87;;;;;;;;;;4971264;28;20301;-67
2023/06/14 09:39:09;;;;;;;15.27;5.63;;;;;;;;;;4972041;28;20240;-68
2023/06/14 09:41:37;;;;;;;11.93;4.60;;;;;;;;;;4954727;28;20200;-68
2023/06/14 09:44:05;;;;;;;13.00;4.80;;;;;;;;;;4972192;28;20705;-67
2023/06/14 09:46:35;;;;;;;10.20;4.67;;;;;;;;;;4987861;28;20231;-67
2023/06/14 09:49:02;;;;;;;10.03;5.00;;;;;;;;;;4991411;28;20601;-68
2023/06/14 09:51:30;;;;;;;8.43;3.97;;;;;;;;;;4975622;28;20205;-68
2023/06/14 09:54:01;;;;;;;6.43;3.97;;;;;;;;;;4972058;28;20192;-67
2023/06/14 09:56:31;;;;;;;7.53;4.17;;;;;;;;;;4971900;28;20213;-67
2023/06/14 09:58:58;;;;;;;12.57;4.30;;;;;;;;;;4972416;28;20204;-67
2023/06/14 10:01:31;;;;;;;6.93;3.90;;;;;;;;;;4971528;28;20204;-68
2023/06/14 10:04:05;;;;;;;6.87;3.70;;;;;;;;;;4978174;28;20227;-67
2023/06/14 10:06:37;;;;;;;5.93;3.80;;;;;;;;;;4990898;28;20193;-68
2023/06/14 10:09:22;;;;;;;7.17;4.07;;;;;;;;;;4996875;28;20259;-71
2023/06/14 10:11:49;;;;;;;6.93;4.23;;;;;;;;;;4985778;28;20185;-68
2023/06/14 10:14:34;;;;;;;7.47;4.33;;;;;;;;;;5008408;28;20183;-68
2023/06/14 10:17:08;;;;;;;19.87;5.33;;;;;;;;;;4988272;28;20327;-67
2023/06/14 10:19:43;;;;;;;6.03;3.70;;;;;;;;;;4991328;28;20192;-67
2023/06/14 10:22:10;;;;;;;8.47;3.80;;;;;;;;;;4988959;28;20540;-68
2023/06/14 10:24:41;;;;;;;10.27;7.73;;;;;;;;;;4990535;28;20200;-69
2023/06/14 10:27:11;;;;;;;8.33;4.40;;;;;;;;;;4991368;28;20256;-69
2023/06/14 10:29:53;;;;;;;6.63;3.70;;;;;;;;;;5008524;28;20185;-68
2023/06/14 10:32:23;;;;;;;5.03;3.47;;;;;;;;;;4990345;28;20446;-67
2023/06/14 10:34:57;;;;;;;6.67;3.67;;;;;;;;;;4989162;28;20193;-67
2023/06/14 10:37:41;;;;;;;4.37;3.27;;;;;;;;;;4990147;28;20247;-67
2023/06/14 10:40:11;;;;;;;4.80;3.37;;;;;;;;;;4990046;28;20193;-67
2023/06/14 10:42:55;;;;;;;5.10;3.30;;;;;;;;;;5009552;28;20176;-67
2023/06/14 10:45:22;;;;;;;5.90;3.73;;;;;;;;;;5002524;28;20280;-66
2023/06/14 10:47:52;;;;;;;7.60;3.50;;;;;;;;;;4989515;28;20189;-67
2023/06/14 10:50:20;;;;;;;4.93;3.30;;;;;;;;;;4989623;28;20607;-68
2023/06/14 10:52:47;;;;;;;4.30;3.13;;;;;;;;;;4988499;28;20201;-67
2023/06/14 10:55:14;;;;;;;4.87;3.13;;;;;;;;;;4989735;28;20568;-67
2023/06/14 10:57:55;;;;;;;8.30;3.33;;;;;;;;;;4989992;28;20247;-68
2023/06/14 11:00:24;;;;;;;5.23;3.53;;;;;;;;;;4972336;28;20255;-66
2023/06/14 11:03:13;;;;;;;6.77;4.13;;;;;;;;;;4990273;28;20976;-65
2023/06/14 11:05:47;;;;;;;7.90;4.20;;;;;;;;;;4989202;28;20207;-67
2023/06/14 11:08:23;;;;;;;8.90;4.53;;;;;;;;;;4988490;28;20552;-66
2023/06/14 11:10:51;;;;;;;6.17;3.60;;;;;;;;;;4988826;28;20225;-67
2023/06/14 11:13:20;;;;;;;9.43;4.70;;;;;;;;;;4988910;28;20212;-66
2023/06/14 11:15:47;;;;;;;9.87;4.33;;;;;;;;;;4996964;28;20246;-66
2023/06/14 11:18:16;;;;;;;6.50;4.47;;;;;;;;;;4998823;28;20184;-68
2023/06/14 11:20:45;;;;;;;10.03;5.53;;;;;;;;;;4981564;28;20208;-68
2023/06/14 11:23:12;;;;;;;7.50;4.67;;;;;;;;;;4988823;28;20181;-67
2023/06/14 11:25:39;;;;;;;7.77;4.50;;;;;;;;;;4993082;28;20229;-67
2023/06/14 11:28:05;;;;;;;10.27;5.20;;;;;;;;;;4988598;28;20180;-67
2023/06/14 11:30:32;;;;;;;7.67;4.43;;;;;;;;;;4987851;28;20545;-68
2023/06/14 11:32:59;;;;;;;4.80;3.20;;;;;;;;;;4988953;28;20995;-65
2023/06/14 11:35:27;;;;;;;6.67;3.40;;;;;;;;;;4975743;28;20820;-67
2023/06/14 11:37:57;;;;;;;3.53;2.40;;;;;;;;;;4983001;28;20267;-65
2023/06/14 11:40:24;;;;;;;6.93;3.30;;;;;;;;;;5008682;28;20272;-63
2023/06/14 11:42:57;;;;;;;4.93;3.10;;;;;;;;;;5009849;28;20639;-64
2023/06/14 11:45:24;;;;;;;6.47;3.13;;;;;;;;;;4991977;28;20180;-65
2023/06/14 11:47:53;;;;;;;5.87;3.33;;;;;;;;;;5009046;28;21083;-65
2023/06/14 11:50:20;;;;;;;13.37;3.23;;;;;;;;;;4984141;28;20202;-66
2023/06/14 11:52:56;;;;;;;7.57;3.20;;;;;;;;;;4989299;28;20201;-65
2023/06/14 11:55:23;;;;;;;4.50;2.83;;;;;;;;;;4989393;28;20205;-65
2023/06/14 11:57:50;;;;;;;5.23;2.80;;;;;;;;;;4989178;28;20635;-65
2023/06/14 12:00:17;;;;;;;4.90;2.97;;;;;;;;;;4989509;28;20193;-65
2023/06/14 12:02:52;;;;;;;7.63;3.10;;;;;;;;;;4972205;28;20235;-65
2023/06/14 12:05:37;;;;;;;9.57;3.03;;;;;;;;;;4989375;28;20715;-65
2023/06/14 12:08:07;;;;;;;6.93;2.60;;;;;;;;;;4989475;28;20667;-65
2023/06/14 12:10:52;;;;;;;5.47;2.47;;;;;;;;;;4989773;28;20169;-65
2023/06/14 12:13:20;;;;;;;3.73;2.50;;;;;;;;;;4989046;28;20195;-65
2023/06/14 12:15:53;;;;;;;5.07;2.50;;;;;;;;;;4972182;28;20220;-64
2023/06/14 12:18:20;;;;;;;3.80;2.63;;;;;;;;;;4988886;28;20188;-64
2023/06/14 12:20:50;;;;;;;4.83;2.83;;;;;;;;;;4971868;28;20219;-65
2023/06/14 12:23:16;;;;;;;4.33;2.73;;;;;;;;;;4988028;28;20193;-64
2023/06/14 12:25:44;;;;;;;9.03;2.90;;;;;;;;;;5006660;28;20671;-64
2023/06/14 12:28:30;;;;;;;4.80;2.80;;;;;;;;;;4996055;28;20277;-65
2023/06/14 12:30:58;;;;;;;9.33;2.77;;;;;;;;;;4995416;28;20274;-65
2023/06/14 12:33:42;;;;;;;4.00;2.73;;;;;;;;;;4998016;28;20171;-64
2023/06/14 12:36:10;;;;;;;5.60;2.80;;;;;;;;;;5012409;28;20216;-64
2023/06/14 12:38:37;;;;;;;6.10;2.63;;;;;;;;;;5012667;28;20192;-64
2023/06/14 12:41:04;;;;;;;3.67;2.73;;;;;;;;;;5012829;28;20188;-65
2023/06/14 12:43:30;;;;;;;4.23;2.60;;;;;;;;;;5012347;28;20200;-64
2023/06/14 12:45:57;;;;;;;5.57;2.57;;;;;;;;;;5010097;28;20275;-65
2023/06/14 12:48:24;;;;;;;5.03;2.40;;;;;;;;;;5013940;28;20219;-64
2023/06/14 12:50:51;;;;;;;5.17;2.67;;;;;;;;;;5006966;28;20240;-65
2023/06/14 12:53:18;;;;;;;4.03;2.40;;;;;;;;;;5013440;28;20188;-65
2023/06/14 12:55:45;;;;;;;2.50;2.30;;;;;;;;;;5013469;28;20232;-66
2023/06/14 12:58:13;;;;;;;4.27;2.50;;;;;;;;;;5000881;28;20222;-66
2023/06/14 13:00:57;;;;;;;3.57;2.30;;;;;;;;;;5013609;28;20172;-65
2023/06/14 13:03:24;;;;;;;6.13;2.87;;;;;;;;;;5012972;28;20188;-65
2023/06/14 13:05:51;;;;;;;5.50;2.63;;;;;;;;;;4996146;28;20659;-65
2023/06/14 13:08:19;;;;;;;8.53;2.90;;;;;;;;;;4999509;28;20234;-65
2023/06/14 13:10:50;;;;;;;3.70;2.30;;;;;;;;;;5014213;28;20719;-64
2023/06/14 13:13:17;;;;;;;4.53;2.40;;;;;;;;;;4995792;28;20189;-65
2023/06/14 13:15:45;;;;;;;4.67;2.27;;;;;;;;;;5004174;28;20208;-65
2023/06/14 13:18:15;;;;;;;3.73;2.50;;;;;;;;;;5013118;28;20218;-65
2023/06/14 13:20:42;;;;;;;6.60;2.53;;;;;;;;;;4996214;28;20293;-65
2023/06/14 13:23:09;;;;;;;3.13;2.20;;;;;;;;;;5003469;28;20220;-65
2023/06/14 13:25:36;;;;;;;5.50;2.30;;;;;;;;;;5009740;28;20209;-65
2023/06/14 13:28:05;;;;;;;8.30;2.87;;;;;;;;;;4993963;28;20228;-65
2023/06/14 13:30:32;;;;;;;3.80;2.60;;;;;;;;;;4993684;28;20193;-65
2023/06/14 13:32:59;;;;;;;4.67;2.70;;;;;;;;;;4993883;28;20189;-65
2023/06/14 13:35:27;;;;;;;3.53;2.50;;;;;;;;;;4993598;28;20259;-65
2023/06/14 13:37:54;;;;;;;8.53;2.50;;;;;;;;;;4993886;28;20188;-64
2023/06/14 13:40:21;;;;;;;6.83;2.60;;;;;;;;;;4992616;28;20196;-65
2023/06/14 13:42:48;;;;;;;4.40;2.43;;;;;;;;;;5008672;28;20186;-65
2023/06/14 13:45:15;;;;;;;5.50;2.50;;;;;;;;;;5005136;28;20189;-65
2023/06/14 13:47:42;;;;;;;6.60;2.57;;;;;;;;;;4993806;28;20190;-64
2023/06/14 13:50:26;;;;;;;4.63;2.37;;;;;;;;;;4993104;28;20172;-65
2023/06/14 13:52:53;;;;;;;4.63;2.43;;;;;;;;;;4993103;28;20193;-65
2023/06/14 13:55:37;;;;;;;6.80;2.53;;;;;;;;;;5006446;28;20180;-65
2023/06/14 13:58:04;;;;;;;5.30;2.37;;;;;;;;;;5000717;28;20627;-66
2023/06/14 14:00:32;;;;;;;5.37;2.97;;;;;;;;;;5013219;28;20196;-65
2023/06/14 14:02:59;;;;;;;5.40;2.73;;;;;;;;;;5012833;28;20192;-65
2023/06/14 14:05:29;;;;;;;8.60;2.73;;;;;;;;;;5012599;28;20683;-65
2023/06/14 14:07:56;;;;;;;4.13;2.70;;;;;;;;;;5012114;28;20227;-65
2023/06/14 14:10:25;;;;;;;3.77;2.57;;;;;;;;;;5012247;28;20648;-65
2023/06/14 14:12:52;;;;;;;6.87;2.57;;;;;;;;;;5012900;28;20249;-65
2023/06/14 14:15:19;;;;;;;4.00;2.60;;;;;;;;;;5012741;28;20263;-65
2023/06/14 14:17:47;;;;;;;4.37;2.50;;;;;;;;;;5012538;28;20255;-65
2023/06/14 14:20:15;;;;;;;4.93;2.57;;;;;;;;;;5012812;28;20606;-65
2023/06/14 14:22:43;;;;;;;4.27;2.70;;;;;;;;;;5011987;28;20187;-65
2023/06/14 14:25:10;;;;;;;14.03;3.10;;;;;;;;;;4999187;28;20220;-65
2023/06/14 14:27:37;;;;;;;5.30;2.53;;;;;;;;;;5005653;28;20219;-64
2023/06/14 14:30:06;;;;;;;4.17;2.63;;;;;;;;;;4998299;28;20196;-65
2023/06/14 14:32:33;;;;;;;12.83;3.37;;;;;;;;;;5011957;28;20591;-65
2023/06/14 14:35:00;;;;;;;5.03;2.50;;;;;;;;;;5006883;28;20251;-65
2023/06/14 14:37:44;;;;;;;5.60;2.67;;;;;;;;;;4987672;28;20220;-64
2023/06/14 14:40:12;;;;;;;7.83;2.50;;;;;;;;;;5008656;28;20202;-64
2023/06/14 14:42:39;;;;;;;6.00;2.67;;;;;;;;;;5011786;28;20776;-64
2023/06/14 14:45:06;;;;;;;6.27;2.53;;;;;;;;;;4997548;28;20668;-65
2023/06/14 14:47:35;;;;;;;8.23;2.60;;;;;;;;;;5000652;28;20196;-64
2023/06/14 14:50:01;;;;;;;6.63;2.43;;;;;;;;;;4998518;28;20247;-65
2023/06/14 14:52:29;;;;;;;5.13;2.50;;;;;;;;;;5012029;28;20246;-64
2023/06/14 14:54:58;;;;;;;4.33;2.50;;;;;;;;;;4994417;28;20215;-66
2023/06/14 14:57:43;;;;;;;4.23;1.93;;;;;;;;;;4979999;28;20200;-67
2023/06/14 15:00:11;;;;;;;4.53;2.37;;;;;;;;;;4998458;28;20675;-65
2023/06/14 15:02:38;;;;;;;9.20;2.57;;;;;;;;;;5001208;28;20222;-65
2023/06/14 15:05:04;;;;;;;8.03;3.00;;;;;;;;;;4961785;28;20229;-65
2023/06/14 15:07:33;;;;;;;5.30;2.67;;;;;;;;;;4984863;28;20252;-66
2023/06/14 15:10:01;;;;;;;6.63;2.87;;;;;;;;;;4975601;28;20208;-65
2023/06/14 15:12:28;;;;;;;8.13;2.60;;;;;;;;;;4980097;28;20211;-65
2023/06/14 15:14:56;;;;;;;10.90;2.60;;;;;;;;;;4979319;28;20193;-65
2023/06/14 15:17:24;;;;;;;6.97;2.40;;;;;;;;;;4986011;28;20768;-65
2023/06/14 15:19:51;;;;;;;6.33;2.70;;;;;;;;;;4985389;28;20204;-66
2023/06/14 15:22:18;;;;;;;9.10;2.80;;;;;;;;;;4976894;28;20199;-65
2023/06/14 15:24:45;;;;;;;7.00;2.20;;;;;;;;;;4971814;28;20244;-65